Flight Track Log - Related Links

Times and Time Zones

All times are in EDT time to prevent confusion due to time zone crossing. See the N762NC flight status page for this flight to view local times or setup timezone preferences in your user account.


Time Position Orientation Groundspeed Altitude Reporting Facility
EDT Latitude Longitude Course Direction KTS MPH feet Rate Location/Type
Tue 11:26:51 AM 33.6333 -84.3833 228° Southwest 174 200 2,300  Level Atlanta TRACON
Tue 11:27:45 AM 33.6000 -84.3167 121° Southeast 256 295 4,300 2,421 Climbing Atlanta TRACON
Tue 11:28:45 AM 33.5500 -84.3000 164° South 269 310 6,900 2,246 Climbing Atlanta TRACON
Tue 11:29:00 AM 33.2354 -84.4167 180° South  Level FlightAware Approximate
Tue 11:30:00 AM 33.1359 -84.4167 180° South  Level FlightAware Approximate
Tue 11:31:00 AM 33.0364 -84.4167 180° South  Level FlightAware Approximate
Tue 11:31:00 AM 33.3661 -84.3200 185° South 292 336 11,600  Level Atlanta Center
Tue 11:32:00 AM 32.9692 -84.5024 228° Southwest  Level FlightAware Approximate
Tue 11:32:00 AM 33.2825 -84.3419 192° South 322 371 12,300  Level Atlanta Center
Tue 11:33:00 AM 33.1844 -84.3689 193° South 356 410 14,800 2,150 Climbing Atlanta Center
Tue 11:34:00 AM 33.0842 -84.3983 194° South 363 418 16,600 1,700 Climbing Atlanta Center
Tue 11:35:00 AM 32.9817 -84.4300 195° South 372 428 18,200 1,650 Climbing Atlanta Center
Tue 11:36:00 AM 32.8772 -84.4592 193° South 377 434 19,900 2,000 Climbing Atlanta Center
Tue 11:37:00 AM 32.7603 -84.4883 192° South 377 434 22,200 1,650 Climbing Atlanta Center
Tue 11:38:00 AM 32.6578 -84.5200 195° South 382 440 23,200 1,150 Climbing Atlanta Center
Tue 11:39:00 AM 32.5492 -84.5539 195° South 388 447 24,500 1,250 Climbing Atlanta Center
Tue 11:40:00 AM 32.4589 -84.6344 217° Southwest 394 453 25,700 1,150 Climbing Atlanta Center
Tue 11:41:00 AM 32.3689 -84.7175 218° Southwest 406 467 26,800 900 Climbing Atlanta Center
Tue 11:42:00 AM 32.2764 -84.8028 218° Southwest 420 483 27,500 650 Climbing Atlanta Center
Tue 11:43:00 AM 32.1842 -84.8881 218° Southwest 425 489 28,100 250 Climbing Atlanta Center
Tue 11:44:00 AM 32.0811 -84.9850 219° Southwest 430 495 28,000 -30 Descending Atlanta Center
Tue 11:46:18 AM 31.8658 -85.1894 219° Southwest 462 532 28,000 -152 Level Jacksonville Center
Tue 11:47:18 AM 31.7681 -85.2847 220° Southwest 457 526 27,500 -900 Descending Jacksonville Center
Tue 11:48:18 AM 31.6722 -85.3825 221° Southwest 462 532 26,200 -1,350 Descending Jacksonville Center
Tue 11:49:18 AM 31.5806 -85.4847 224° Southwest 462 532 24,800 -1,200 Descending Jacksonville Center
Tue 11:50:18 AM 31.5031 -85.5997 232° Southwest 462 532 23,800 -950 Descending Jacksonville Center
Tue 11:51:18 AM 31.4253 -85.7142 231° Southwest 462 532 22,900 -800 Descending Jacksonville Center
Tue 11:52:18 AM 31.3475 -85.8286 232° Southwest 457 526 22,200 -1,550 Descending Jacksonville Center
Tue 11:53:18 AM 31.2761 -85.9358 232° Southwest 452 520 19,800 -2,750 Descending Jacksonville Center
Tue 11:54:18 AM 31.2067 -86.0428 233° Southwest 436 502 16,700 -2,900 Descending Jacksonville Center
Tue 11:55:18 AM 31.1353 -86.1472 231° Southwest 424 488 14,000 -1,850 Descending Jacksonville Center
Tue 11:56:18 AM 31.0639 -86.2417 229° Southwest 411 473 13,000 -850 Descending Jacksonville Center
Tue 11:57:18 AM 30.9861 -86.3358 226° Southwest 393 452 12,300 -600 Descending Jacksonville Center
Tue 11:58:18 AM 30.8789 -86.3658 194° South 366 421 11,800 -650 Descending Jacksonville Center
Tue 11:59:18 AM 30.7906 -86.3892 193° South 355 409 11,000 -1,150 Descending Jacksonville Center
Tue 12:00:18 PM 30.7183 -86.4350 209° Southwest 324 373 9,500 -1,700 Descending Jacksonville Center
Tue 12:01:18 PM 30.6464 -86.4733 205° Southwest 301 346 7,600 -1,050 Descending Jacksonville Center
Tue 12:02:18 PM 30.5831 -86.4903 193° South 269 310 7,400 -1,300 Descending Jacksonville Center
Tue 12:03:18 PM 30.5403 -86.5297 218° Southwest 205 236 5,000 -1,950 Descending Jacksonville Center
Tue 12:04:18 PM 30.5614 -86.5906 292° West 158 182 3,500 -1,750 Descending Jacksonville Center
Tue 12:05:18 PM 30.5275 -86.6064 202° Southwest 136 157 1,500 -800 Descending Jacksonville Center
Tue 12:06:18 PM 30.5175 -86.5914 128° Southeast 115 132 1,900 400 Climbing Jacksonville Center

Login

Don't have an account? Register now (free) for customized features, flight alerts, and more!